Airfield :
LOGIN :

Register | Disclaimer

   EN    FR    IT 

 










Legend :    VFR   Marginal VFR   IFR   Intensive IFR   Very Intensive IFR
Visi :
Ceiling :
>= 8 km
>= 3000ft
5 to 8 km
1000 to 3000 ft
1500m to 5 km
500 to 1000 ft
800 to 1500m
200 to 500 ft
< 800m
< 200 ft
Symbols :   Thunderstorms  Fog  Heavy snow  Heavy precipitations  Wind > 20 kt
SIGMETs :     Misc.  Thunderstorms  Icing  Turbulence  Mountain Waves  Volcanic Ashes







- Airport Elevation : 2001 ft
- IATA code : MAD


LEMD - Madrid

CURRENT METAR :
  • 161800Z 24008KT 200V290 CAVOK 30/M00 Q1016 NOSIG

EXPIRED METARs :
  • 161730Z 24007KT 190V290 CAVOK 30/M00 Q1016 NOSIG
  • 161700Z 26008KT 210V310 CAVOK 29/00 Q1016 NOSIG
  • 161630Z 27008KT 230V320 CAVOK 29/01 Q1016 NOSIG
  • 161600Z 21005KT 120V260 CAVOK 30/02 Q1016 NOSIG
  • 161530Z 24007KT 170V310 CAVOK 29/01 Q1017 NOSIG

TAF TAF LEMD
Valid from the 16 at 18:00 until the 18 at 00:00 UTC


161700Z 1618/1724 VRB05KT CAVOK TX33/1716Z TN13/1706Z
TEMPO 1618/1622 SCT050
PROB40
TEMPO 1710/1718 21010KT
TEMPO 1718/1724 SCT050
No reported NOTAMs for that airfield.
1 SIGMET reported for the Madrid FIR (LECM) :
 
Severe turbulence
LECM SIGMET 1 VALID 161800/162200 LEVA
LECM MADRID UIR SEV TURB FCST WI N3712 W00721 - N3709 W00701 - N3734 W00633 - N3621 W00257 - N3717 W00146 - N3938 W00703 - N3936 W00723 - N3712 W00721 FL290/350 MOV NE NC=



MET'MAP, your aeronautical weather chart ! - Copyright ORBIFLY December 2007 - Disclaimer

ORBIFLY MET'MAP TEAM :

Programming & Development : Alexandra Zaïnal
Concept & Development : Baudouin d'Aumeries
Co-Development & Prog : Marc-Olivier Méhu
Technical & hardware support : Manuel Goepfert

Contact : metmap@orbifly.com




SOURCES & CREDITS :

   NOAA